Time;durP1;ratioP1;P1;durP2;ratioP2;P2;SDS_P1;SDS_P2;PMS_P1;PMS_P2;Temp;Humidity;BMP_temperature;BMP_pressure;BME280_temperature;BME280_humidity;BME280_pressure;Samples;Min_cycle;Max_cycle;Signal;HPM_P1;HPM_P2
2021/03/04 00:00:32;;;;;;;26.05;7.22;;;14.70;62.60;;;;;;1047801;28;20051;-74
2021/03/04 00:01:03;;;;;;;27.08;7.13;;;14.70;62.20;;;;;;1044399;28;20013;-77
2021/03/04 00:01:34;;;;;;;24.55;6.60;;;14.70;62.00;;;;;;1037417;28;20119;-77
2021/03/04 00:02:06;;;;;;;25.17;6.80;;;14.70;62.00;;;;;;1033095;28;20045;-72
2021/03/04 00:02:38;;;;;;;31.38;7.47;;;14.70;62.10;;;;;;1037818;28;20029;-77
2021/03/04 00:03:09;;;;;;;30.45;8.05;;;14.70;62.00;;;;;;1036969;28;20002;-79
2021/03/04 00:03:40;;;;;;;25.77;7.55;;;14.70;62.10;;;;;;1036822;28;20018;-78
2021/03/04 00:04:12;;;;;;;25.42;7.10;;;14.70;62.80;;;;;;1033468;28;20052;-77
2021/03/04 00:04:43;;;;;;;29.00;7.32;;;14.70;62.00;;;;;;1033125;28;20010;-77
2021/03/04 00:05:16;;;;;;;26.58;7.13;;;14.70;62.20;;;;;;1037412;28;20015;-75
2021/03/04 00:05:47;;;;;;;32.88;7.13;;;14.60;62.10;;;;;;1040647;28;20021;-76
2021/03/04 00:06:19;;;;;;;25.75;6.95;;;14.60;62.20;;;;;;1037296;28;20029;-77
2021/03/04 00:06:50;;;;;;;31.73;7.10;;;14.60;62.00;;;;;;1045776;28;20386;-78
2021/03/04 00:07:22;;;;;;;26.90;6.85;;;14.50;62.20;;;;;;1040417;28;20451;-78
2021/03/04 00:07:53;;;;;;;22.35;6.70;;;14.50;62.30;;;;;;1040679;28;20018;-77
2021/03/04 00:08:24;;;;;;;22.95;7.30;;;14.50;62.00;;;;;;1040148;28;20413;-80
2021/03/04 00:08:56;;;;;;;27.02;7.40;;;14.50;62.10;;;;;;1038498;28;20010;-78
2021/03/04 00:09:27;;;;;;;23.17;6.55;;;14.40;62.30;;;;;;1038645;28;20010;-76
2021/03/04 00:09:59;;;;;;;30.77;7.55;;;14.40;62.50;;;;;;1037199;28;20045;-79
2021/03/04 00:10:31;;;;;;;25.73;7.00;;;14.50;62.20;;;;;;1040966;28;20021;-77
2021/03/04 00:11:02;;;;;;;28.88;7.00;;;14.40;62.20;;;;;;1045199;28;20017;-79
2021/03/04 00:11:33;;;;;;;28.58;7.28;;;14.40;62.20;;;;;;1043678;28;20358;-77
2021/03/04 00:12:05;;;;;;;22.05;6.20;;;14.50;62.20;;;;;;1041273;28;20021;-76
2021/03/04 00:12:37;;;;;;;26.50;6.70;;;14.50;62.00;;;;;;1039053;28;20014;-76
2021/03/04 00:13:08;;;;;;;22.40;6.35;;;14.50;61.80;;;;;;1036296;28;20030;-76
2021/03/04 00:13:40;;;;;;;25.52;6.97;;;14.60;61.70;;;;;;1028810;28;20045;-79
2021/03/04 00:14:11;;;;;;;26.40;6.50;;;14.60;61.30;;;;;;1030196;28;20090;-77
2021/03/04 00:14:43;;;;;;;22.00;6.82;;;14.70;61.20;;;;;;1035333;28;20475;-75
2021/03/04 00:15:17;;;;;;;25.35;6.60;;;14.70;61.20;;;;;;1038644;28;20026;-80
2021/03/04 00:15:50;;;;;;;23.85;6.55;;;14.70;60.90;;;;;;1039542;28;20113;-76
2021/03/04 00:16:21;;;;;;;28.42;7.13;;;14.70;60.80;;;;;;1036567;28;20029;-75
2021/03/04 00:16:53;;;;;;;25.80;6.70;;;14.70;60.80;;;;;;1032820;28;20049;-75
2021/03/04 00:17:24;;;;;;;31.65;6.63;;;14.70;60.80;;;;;;1032275;28;20040;-78
2021/03/04 00:17:56;;;;;;;27.75;6.72;;;14.60;60.90;;;;;;1034035;28;20015;-76
2021/03/04 00:18:27;;;;;;;26.90;6.47;;;14.60;61.00;;;;;;1037084;28;20092;-75
2021/03/04 00:18:59;;;;;;;24.73;7.15;;;14.60;60.80;;;;;;1037590;28;20022;-76
2021/03/04 00:19:30;;;;;;;24.60;6.57;;;14.60;60.80;;;;;;1043790;28;20020;-74
2021/03/04 00:20:09;;;;;;;23.02;6.28;;;14.70;60.70;;;;;;1035108;28;20018;-76
2021/03/04 00:20:40;;;;;;;28.02;7.20;;;14.70;60.10;;;;;;1033002;28;20105;-76
2021/03/04 00:21:12;;;;;;;29.63;6.85;;;14.80;60.10;;;;;;1034224;28;20491;-78
2021/03/04 00:21:43;;;;;;;22.73;6.63;;;14.70;60.20;;;;;;1036138;28;20045;-75
2021/03/04 00:22:15;;;;;;;24.80;6.47;;;14.70;60.20;;;;;;1042067;28;20021;-74
2021/03/04 00:22:46;;;;;;;21.33;6.05;;;14.70;60.10;;;;;;1041176;28;20069;-76
2021/03/04 00:23:18;;;;;;;28.08;6.68;;;14.70;60.30;;;;;;1040719;28;20455;-76
2021/03/04 00:23:49;;;;;;;27.15;6.75;;;14.70;60.30;;;;;;1037017;28;20014;-74
2021/03/04 00:24:21;;;;;;;31.17;6.78;;;14.70;60.40;;;;;;1037467;28;20042;-76
2021/03/04 00:24:52;;;;;;;26.00;6.15;;;14.70;60.30;;;;;;1040739;28;20026;-76
2021/03/04 00:25:35;;;;;;;25.58;6.47;;;14.70;60.40;;;;;;1041020;28;20478;-76
2021/03/04 00:26:06;;;;;;;32.13;6.65;;;14.70;60.10;;;;;;1039317;28;20070;-73
2021/03/04 00:26:38;;;;;;;33.08;7.30;;;14.70;60.10;;;;;;1039653;28;20017;-75
2021/03/04 00:27:09;;;;;;;28.38;6.90;;;14.70;60.00;;;;;;1041009;28;20014;-72
2021/03/04 00:27:41;;;;;;;29.48;7.13;;;14.70;59.80;;;;;;1038842;28;20439;-75
2021/03/04 00:28:13;;;;;;;29.27;6.40;;;14.70;59.80;;;;;;1038514;28;20486;-77
2021/03/04 00:28:44;;;;;;;23.40;6.40;;;14.60;59.70;;;;;;1040048;28;20010;-78
2021/03/04 00:29:16;;;;;;;30.00;6.93;;;14.70;59.80;;;;;;1041138;28;20037;-77
2021/03/04 00:29:47;;;;;;;29.58;6.18;;;14.60;60.00;;;;;;1033445;28;20021;-74
2021/03/04 00:30:20;;;;;;;20.45;6.57;;;14.70;59.70;;;;;;1034012;28;20053;-76
2021/03/04 00:30:51;;;;;;;26.90;6.68;;;14.70;59.40;;;;;;1036930;28;20014;-77
2021/03/04 00:31:22;;;;;;;19.98;6.60;;;14.80;59.30;;;;;;1038376;28;20029;-76
2021/03/04 00:31:54;;;;;;;24.58;6.65;;;14.70;59.40;;;;;;1041274;28;20033;-76
2021/03/04 00:32:25;;;;;;;27.00;6.63;;;14.70;59.60;;;;;;1041230;28;20014;-79
2021/03/04 00:32:57;;;;;;;27.60;6.97;;;14.70;59.40;;;;;;1037681;28;20108;-77
2021/03/04 00:33:28;;;;;;;24.50;6.13;;;14.70;59.10;;;;;;1038854;28;20036;-78
2021/03/04 00:34:00;;;;;;;26.23;7.03;;;14.70;59.40;;;;;;1037043;28;20029;-78
2021/03/04 00:34:31;;;;;;;26.30;6.90;;;14.70;58.70;;;;;;1038191;28;20030;-76
2021/03/04 00:35:03;;;;;;;26.35;6.35;;;14.70;58.60;;;;;;1037397;28;20017;-78
2021/03/04 00:35:35;;;;;;;21.27;6.18;;;14.80;58.60;;;;;;1036842;28;20430;-76
2021/03/04 00:36:07;;;;;;;32.15;6.30;;;14.80;58.50;;;;;;1032405;28;20046;-77
2021/03/04 00:36:38;;;;;;;29.10;6.20;;;14.80;58.50;;;;;;1031256;28;20101;-78
2021/03/04 00:37:10;;;;;;;21.63;6.60;;;14.90;58.30;;;;;;1034927;28;20018;-77
2021/03/04 00:37:41;;;;;;;22.50;5.75;;;14.90;58.10;;;;;;1037197;28;20105;-75
2021/03/04 00:38:13;;;;;;;22.08;6.50;;;14.80;58.30;;;;;;1037214;28;20028;-78
2021/03/04 00:38:44;;;;;;;22.60;6.28;;;14.80;58.10;;;;;;1038105;28;20017;-77
2021/03/04 00:39:16;;;;;;;18.35;5.90;;;14.80;58.30;;;;;;1038004;28;20032;-76
2021/03/04 00:39:47;;;;;;;25.50;6.45;;;14.80;58.40;;;;;;1038978;28;20454;-77
2021/03/04 00:40:21;;;;;;;24.45;6.43;;;14.80;58.50;;;;;;1035878;28;20057;-75
2021/03/04 00:40:52;;;;;;;25.05;6.10;;;14.80;58.50;;;;;;1043051;28;20526;-76
2021/03/04 00:41:23;;;;;;;20.77;6.65;;;14.80;58.30;;;;;;1042395;28;20020;-78
2021/03/04 00:41:55;;;;;;;31.23;6.35;;;14.90;58.30;;;;;;1043473;28;20013;-78
2021/03/04 00:42:27;;;;;;;33.55;6.82;;;14.90;57.90;;;;;;1045836;28;20110;-77
2021/03/04 00:42:58;;;;;;;21.40;6.30;;;14.90;57.50;;;;;;1043233;28;20409;-79
2021/03/04 00:43:30;;;;;;;27.02;7.18;;;15.00;57.20;;;;;;1041494;28;20029;-78
2021/03/04 00:44:03;;;;;;;22.38;6.35;;;15.00;57.00;;;;;;1039869;28;20072;-76
2021/03/04 00:44:35;;;;;;;23.20;6.55;;;15.00;56.40;;;;;;1038548;28;20061;-77
2021/03/04 00:45:09;;;;;;;26.52;6.28;;;14.90;56.70;;;;;;1037322;28;20549;-79
2021/03/04 00:45:40;;;;;;;23.77;6.57;;;14.90;57.10;;;;;;1041463;28;20094;-78
2021/03/04 00:46:12;;;;;;;20.65;5.60;;;15.00;56.70;;;;;;1041877;28;20029;-77
2021/03/04 00:46:43;;;;;;;23.08;6.72;;;15.00;56.70;;;;;;1041978;28;20366;-77
2021/03/04 00:47:15;;;;;;;24.83;6.35;;;15.00;57.00;;;;;;1042012;28;20017;-78
2021/03/04 00:47:46;;;;;;;26.92;6.80;;;15.00;57.20;;;;;;1042300;28;20044;-77
2021/03/04 00:48:18;;;;;;;25.52;6.72;;;15.00;57.30;;;;;;1042423;28;20111;-77
2021/03/04 00:48:49;;;;;;;22.20;6.47;;;15.00;57.30;;;;;;1042854;28;20405;-77
2021/03/04 00:49:20;;;;;;;31.42;6.75;;;15.00;57.30;;;;;;1042116;28;20095;-76
2021/03/04 00:49:52;;;;;;;33.28;7.10;;;15.00;57.10;;;;;;1037476;28;20026;-77
2021/03/04 00:50:23;;;;;;;42.10;7.68;;;15.00;57.10;;;;;;1038090;28;20022;-78
2021/03/04 00:50:56;;;;;;;27.98;7.68;;;15.00;57.00;;;;;;1035839;28;20523;-78
2021/03/04 00:51:28;;;;;;;27.25;6.70;;;15.00;56.90;;;;;;1039720;28;20021;-78
2021/03/04 00:52:00;;;;;;;42.30;6.95;;;15.10;56.70;;;;;;1042820;28;20485;-78
2021/03/04 00:52:31;;;;;;;35.78;7.05;;;15.20;56.30;;;;;;1045577;28;20439;-78
2021/03/04 00:53:03;;;;;;;38.08;7.80;;;15.20;56.30;;;;;;1047143;28;20476;-78
2021/03/04 00:53:34;;;;;;;36.38;7.30;;;15.10;56.40;;;;;;1040263;28;20032;-77
2021/03/04 00:54:07;;;;;;;30.88;7.97;;;15.10;56.30;;;;;;1035121;28;20464;-78
2021/03/04 00:54:38;;;;;;;26.88;6.63;;;15.10;56.90;;;;;;1031741;28;20018;-78
2021/03/04 00:55:11;;;;;;;27.85;6.53;;;15.10;56.40;;;;;;1033479;28;20018;-77
2021/03/04 00:55:42;;;;;;;24.10;6.82;;;15.10;57.00;;;;;;1038567;28;20013;-78
2021/03/04 00:56:13;;;;;;;26.23;6.60;;;15.10;56.30;;;;;;1036462;28;20026;-79
2021/03/04 00:56:45;;;;;;;26.15;6.85;;;15.00;56.40;;;;;;1041425;28;20013;-75
2021/03/04 00:57:16;;;;;;;28.23;7.40;;;15.00;56.40;;;;;;1042036;28;20022;-78
2021/03/04 00:57:48;;;;;;;24.10;6.60;;;15.00;56.40;;;;;;1041793;28;20466;-76
2021/03/04 00:58:19;;;;;;;24.25;6.95;;;15.00;56.40;;;;;;1040179;28;20036;-78
2021/03/04 00:58:51;;;;;;;26.52;7.10;;;15.00;56.60;;;;;;1035316;28;20033;-76
2021/03/04 00:59:22;;;;;;;32.38;8.18;;;15.10;56.50;;;;;;1037850;28;20522;-77
2021/03/04 00:59:54;;;;;;;27.98;7.00;;;15.10;56.50;;;;;;1039005;28;20022;-79
2021/03/04 01:00:26;;;;;;;25.85;6.90;;;15.00;56.70;;;;;;1038415;28;20097;-77
2021/03/04 01:00:57;;;;;;;25.67;7.57;;;14.90;57.00;;;;;;1042325;28;20052;-76
2021/03/04 01:01:29;;;;;;;34.40;7.60;;;15.00;57.00;;;;;;1038424;28;20034;-77
2021/03/04 01:02:00;;;;;;;26.23;7.07;;;15.00;56.90;;;;;;1038974;28;20474;-78
2021/03/04 01:02:31;;;;;;;29.67;7.07;;;15.00;57.10;;;;;;1036386;28;20117;-78
2021/03/04 01:03:03;;;;;;;29.33;7.40;;;14.90;57.20;;;;;;1039235;28;20040;-76
2021/03/04 01:03:35;;;;;;;27.75;8.10;;;14.90;57.40;;;;;;1040285;28;20148;-75
2021/03/04 01:04:06;;;;;;;23.45;7.03;;;14.90;57.20;;;;;;1037478;28;20033;-77
2021/03/04 01:04:38;;;;;;;28.48;7.43;;;15.00;57.10;;;;;;1039391;28;20030;-74
2021/03/04 01:05:09;;;;;;;26.33;6.95;;;15.00;57.00;;;;;;1037700;28;20080;-76
2021/03/04 01:05:41;;;;;;;39.65;7.38;;;15.00;56.90;;;;;;1036041;28;20035;-77
2021/03/04 01:06:14;;;;;;;30.30;7.82;;;15.00;56.90;;;;;;1038471;28;20090;-76
2021/03/04 01:06:45;;;;;;;28.92;7.85;;;15.00;57.10;;;;;;1035914;28;20061;-77
2021/03/04 01:07:17;;;;;;;33.17;7.95;;;15.00;57.10;;;;;;1038394;28;20030;-76
2021/03/04 01:07:48;;;;;;;28.20;7.57;;;15.00;57.10;;;;;;1037134;28;20034;-77
2021/03/04 01:08:19;;;;;;;29.48;7.45;;;15.00;57.20;;;;;;1034697;28;20044;-76
2021/03/04 01:08:51;;;;;;;34.33;7.93;;;14.90;57.30;;;;;;1037134;28;20022;-76
2021/03/04 01:09:22;;;;;;;33.03;8.15;;;14.90;57.30;;;;;;1040653;28;20025;-78
2021/03/04 01:09:54;;;;;;;32.40;7.80;;;14.90;57.30;;;;;;1036610;28;20039;-77
2021/03/04 01:10:40;;;;;;;34.03;8.45;;;15.00;57.30;;;;;;1039218;28;20025;-75
2021/03/04 01:11:12;;;;;;;30.75;7.50;;;14.90;57.40;;;;;;1037952;28;20037;-77
2021/03/04 01:11:44;;;;;;;31.33;8.25;;;14.90;57.50;;;;;;1042914;28;20065;-78
2021/03/04 01:12:15;;;;;;;32.08;7.82;;;14.80;57.70;;;;;;1040818;28;20021;-77
2021/03/04 01:12:47;;;;;;;29.50;8.32;;;14.80;57.70;;;;;;1041917;28;20021;-75
2021/03/04 01:13:19;;;;;;;31.30;7.88;;;14.70;58.00;;;;;;1038905;28;20079;-78
2021/03/04 01:13:50;;;;;;;31.30;7.30;;;14.70;58.10;;;;;;1033163;28;20030;-74
2021/03/04 01:14:22;;;;;;;30.35;7.88;;;14.60;58.00;;;;;;1036464;28;20603;-77
2021/03/04 01:14:53;;;;;;;29.55;7.93;;;14.60;58.10;;;;;;1034497;28;20022;-75
2021/03/04 01:15:25;;;;;;;33.85;8.45;;;14.50;58.40;;;;;;1038496;28;20033;-77
2021/03/04 01:15:56;;;;;;;33.13;8.25;;;14.50;58.60;;;;;;1042753;28;20017;-77
2021/03/04 01:16:27;;;;;;;32.88;7.80;;;14.50;58.70;;;;;;1041553;28;20474;-76
2021/03/04 01:17:00;;;;;;;29.30;8.02;;;14.50;58.80;;;;;;1042904;28;20032;-77
2021/03/04 01:17:31;;;;;;;34.10;8.38;;;14.50;58.80;;;;;;1041015;28;20082;-77
2021/03/04 01:18:05;;;;;;;28.95;7.85;;;14.40;58.80;;;;;;1041564;28;20067;-75
2021/03/04 01:18:36;;;;;;;28.65;7.85;;;14.40;59.00;;;;;;1038658;28;20026;-74
2021/03/04 01:19:08;;;;;;;32.95;8.25;;;14.40;59.20;;;;;;1038270;28;20104;-76
2021/03/04 01:19:39;;;;;;;26.23;7.43;;;14.30;59.30;;;;;;1037160;28;20026;-75
2021/03/04 01:20:13;;;;;;;29.77;7.88;;;14.40;59.40;;;;;;1036456;28;20160;-79
2021/03/04 01:20:47;;;;;;;29.33;7.72;;;14.40;59.40;;;;;;1038503;28;20025;-78
2021/03/04 01:21:24;;;;;;;31.30;7.88;;;14.30;59.40;;;;;;1039462;28;20017;-79
2021/03/04 01:21:56;;;;;;;31.67;7.82;;;14.30;59.60;;;;;;1037694;28;20440;-79
2021/03/04 01:22:27;;;;;;;30.33;7.47;;;14.20;59.80;;;;;;1037153;28;20033;-79
2021/03/04 01:22:59;;;;;;;29.05;7.45;;;14.20;59.90;;;;;;1039085;28;20025;-78
2021/03/04 01:23:36;;;;;;;35.63;8.30;;;14.20;60.20;;;;;;1035709;28;20479;-79
2021/03/04 01:24:08;;;;;;;29.38;7.43;;;14.30;60.00;;;;;;1039493;28;20060;-78
2021/03/04 01:24:40;;;;;;;38.78;8.10;;;14.30;59.90;;;;;;1038649;28;20065;-77
2021/03/04 01:25:15;;;;;;;36.40;8.07;;;14.30;59.60;;;;;;1038601;28;20022;-78
2021/03/04 01:25:49;;;;;;;29.25;8.05;;;14.20;59.70;;;;;;1037841;28;20038;-77
2021/03/04 01:26:21;;;;;;;31.52;7.40;;;14.20;60.00;;;;;;1037267;28;20624;-79
2021/03/04 01:26:52;;;;;;;32.97;7.68;;;14.20;60.00;;;;;;1040854;28;20093;-76
2021/03/04 01:27:23;;;;;;;26.42;8.23;;;14.10;60.10;;;;;;1035011;28;20553;-77
2021/03/04 01:27:55;;;;;;;31.75;8.23;;;14.20;60.30;;;;;;1033104;28;20375;-76
2021/03/04 01:28:26;;;;;;;32.83;7.97;;;14.10;60.40;;;;;;1037803;28;20033;-77
2021/03/04 01:28:58;;;;;;;34.53;7.60;;;14.10;60.60;;;;;;1037723;28;20030;-77
2021/03/04 01:29:29;;;;;;;25.65;7.25;;;14.10;60.30;;;;;;1034750;28;20089;-78
2021/03/04 01:30:01;;;;;;;30.80;7.40;;;14.10;60.30;;;;;;1032419;28;20452;-77
2021/03/04 01:30:34;;;;;;;38.42;8.43;;;14.20;60.10;;;;;;1030717;28;20040;-76
2021/03/04 01:31:05;;;;;;;26.00;7.40;;;14.20;59.90;;;;;;1036779;28;20021;-77
2021/03/04 01:31:36;;;;;;;37.13;8.48;;;14.20;59.90;;;;;;1038889;28;20092;-77
2021/03/04 01:32:08;;;;;;;31.08;8.18;;;14.20;59.80;;;;;;1040594;28;20506;-75
2021/03/04 01:32:40;;;;;;;29.20;7.70;;;14.20;59.70;;;;;;1036561;28;20026;-77
2021/03/04 01:33:11;;;;;;;31.70;8.07;;;14.20;59.70;;;;;;1031649;28;20113;-77
2021/03/04 01:33:42;;;;;;;33.28;7.95;;;14.20;59.80;;;;;;1033605;28;20041;-75
2021/03/04 01:34:14;;;;;;;28.92;8.82;;;14.20;60.10;;;;;;1038034;28;20037;-77
2021/03/04 01:34:45;;;;;;;35.45;8.75;;;14.20;60.10;;;;;;1038560;28;20022;-76
2021/03/04 01:35:25;;;;;;;28.75;7.85;;;14.20;60.00;;;;;;1038482;28;20039;-79
2021/03/04 01:35:56;;;;;;;33.65;8.20;;;14.10;60.10;;;;;;1037936;28;20029;-78
2021/03/04 01:36:28;;;;;;;35.95;8.32;;;14.10;60.30;;;;;;1038218;28;20014;-77
2021/03/04 01:36:59;;;;;;;40.25;9.18;;;14.10;60.40;;;;;;1039328;28;20045;-74
2021/03/04 01:37:30;;;;;;;39.95;8.73;;;14.00;60.60;;;;;;1038498;28;20426;-77
2021/03/04 01:38:02;;;;;;;28.23;8.32;;;14.00;60.80;;;;;;1038977;28;20477;-77
2021/03/04 01:38:33;;;;;;;34.05;8.20;;;14.00;60.60;;;;;;1040032;28;20336;-77
2021/03/04 01:39:08;;;;;;;29.40;7.63;;;13.90;60.40;;;;;;1041501;28;20021;-77
2021/03/04 01:39:39;;;;;;;30.38;8.52;;;14.00;60.40;;;;;;1043032;28;20079;-77
2021/03/04 01:40:14;;;;;;;29.95;8.07;;;13.90;60.50;;;;;;1042326;28;20022;-77
2021/03/04 01:40:45;;;;;;;33.33;8.23;;;13.90;60.10;;;;;;1046192;28;20013;-77
2021/03/04 01:41:17;;;;;;;35.00;7.97;;;13.80;60.50;;;;;;1042687;28;20031;-75
2021/03/04 01:41:49;;;;;;;32.13;8.23;;;13.80;60.60;;;;;;1041889;28;20021;-77
2021/03/04 01:42:20;;;;;;;32.72;8.18;;;13.80;60.60;;;;;;1040665;28;20099;-75
2021/03/04 01:42:52;;;;;;;30.23;8.07;;;13.80;60.60;;;;;;1041836;28;20339;-77
2021/03/04 01:43:23;;;;;;;34.05;8.25;;;13.90;60.30;;;;;;1037214;28;20049;-77
2021/03/04 01:43:55;;;;;;;32.83;8.43;;;13.80;60.30;;;;;;1039836;28;20155;-77
2021/03/04 01:44:26;;;;;;;34.47;8.50;;;13.80;60.10;;;;;;1039227;28;20457;-75
2021/03/04 01:44:58;;;;;;;34.38;8.13;;;13.80;60.10;;;;;;1041082;28;20014;-77
2021/03/04 01:45:29;;;;;;;35.08;8.38;;;13.80;60.10;;;;;;1041546;28;20351;-77
2021/03/04 01:46:01;;;;;;;30.73;8.10;;;13.80;60.30;;;;;;1038344;28;20030;-76
2021/03/04 01:46:32;;;;;;;37.95;8.70;;;13.90;60.30;;;;;;1037050;28;20486;-75
2021/03/04 01:47:07;;;;;;;30.45;8.23;;;13.80;60.30;;;;;;1033650;28;20080;-78
2021/03/04 01:47:42;;;;;;;34.92;8.95;;;13.80;60.60;;;;;;1041309;28;20827;-78
2021/03/04 01:48:15;;;;;;;30.73;7.60;;;13.80;60.80;;;;;;1038054;28;20022;-74
2021/03/04 01:48:47;;;;;;;30.58;8.10;;;13.70;60.90;;;;;;1040380;28;20033;-77
2021/03/04 01:49:18;;;;;;;30.80;7.55;;;13.80;60.70;;;;;;1040964;28;20529;-76
2021/03/04 01:49:50;;;;;;;31.52;8.23;;;13.70;60.80;;;;;;1037381;28;20018;-77
2021/03/04 01:50:26;;;;;;;30.48;8.30;;;13.70;61.00;;;;;;1039926;28;20092;-77
2021/03/04 01:50:58;;;;;;;35.38;7.97;;;13.70;61.20;;;;;;1038799;28;20033;-78
2021/03/04 01:51:30;;;;;;;39.42;8.55;;;13.60;61.30;;;;;;1037106;28;20029;-75
2021/03/04 01:52:01;;;;;;;37.15;8.02;;;13.70;61.50;;;;;;1040703;28;20033;-75
2021/03/04 01:52:33;;;;;;;29.52;7.68;;;13.70;61.50;;;;;;1038828;28;20064;-75
2021/03/04 01:53:05;;;;;;;31.42;8.05;;;13.60;61.60;;;;;;1036486;28;20030;-77
2021/03/04 01:53:37;;;;;;;41.67;8.80;;;13.60;61.80;;;;;;1043888;28;20033;-74
2021/03/04 01:54:09;;;;;;;35.33;8.50;;;13.60;61.90;;;;;;1045075;28;20445;-75
2021/03/04 01:54:41;;;;;;;34.75;7.85;;;13.60;62.10;;;;;;1046607;28;20476;-77
2021/03/04 01:55:16;;;;;;;36.42;8.35;;;13.60;62.20;;;;;;1045456;28;20104;-78
2021/03/04 01:55:49;;;;;;;31.88;7.78;;;13.60;62.30;;;;;;1038415;28;20076;-77
2021/03/04 01:56:21;;;;;;;37.67;8.50;;;13.60;62.20;;;;;;1034238;28;20026;-78
2021/03/04 01:56:52;;;;;;;39.05;9.65;;;13.70;62.20;;;;;;1033569;28;20105;-77
2021/03/04 01:57:24;;;;;;;33.55;7.97;;;13.60;62.00;;;;;;1035372;28;20452;-77
2021/03/04 01:58:04;;;;;;;35.50;7.82;;;13.60;62.20;;;;;;1036763;28;20026;-79
2021/03/04 01:58:36;;;;;;;32.85;7.70;;;13.50;62.40;;;;;;1038660;28;20341;-77
2021/03/04 01:59:07;;;;;;;41.30;8.68;;;13.60;62.50;;;;;;1037553;28;20026;-77
2021/03/04 01:59:39;;;;;;;35.75;8.45;;;13.60;62.60;;;;;;1042090;28;20029;-76
2021/03/04 02:00:12;;;;;;;27.40;7.68;;;13.60;62.70;;;;;;1041423;28;20528;-77
2021/03/04 02:00:43;;;;;;;33.92;8.63;;;13.60;62.80;;;;;;1040426;28;20025;-77
2021/03/04 02:01:15;;;;;;;37.53;9.27;;;13.60;62.90;;;;;;1042951;28;20454;-77
2021/03/04 02:01:46;;;;;;;34.05;8.30;;;13.60;62.90;;;;;;1045451;28;20516;-74
2021/03/04 02:02:18;;;;;;;37.70;8.45;;;13.60;63.50;;;;;;1042155;28;20014;-78
2021/03/04 02:02:49;;;;;;;37.10;8.90;;;13.50;62.90;;;;;;1044797;28;20024;-73
2021/03/04 02:03:25;;;;;;;39.03;8.77;;;13.60;62.90;;;;;;1042178;28;20082;-76
2021/03/04 02:03:57;;;;;;;35.15;8.63;;;13.60;62.90;;;;;;1038429;28;20400;-77
2021/03/04 02:04:28;;;;;;;34.50;8.05;;;13.60;62.80;;;;;;1034623;28;20021;-76
2021/03/04 02:05:00;;;;;;;34.00;8.45;;;13.70;62.70;;;;;;1039117;28;20021;-76
2021/03/04 02:05:31;;;;;;;33.67;8.30;;;13.80;62.20;;;;;;1039313;28;20033;-78
2021/03/04 02:06:03;;;;;;;36.35;8.13;;;13.90;62.00;;;;;;1040907;28;20026;-78
2021/03/04 02:07:06;;;;;;;34.58;9.50;;;13.80;61.70;;;;;;1043372;28;20021;-77
2021/03/04 02:07:58;;;;;;;35.75;8.40;;;13.70;62.00;;;;;;1040123;28;20064;-78
2021/03/04 02:09:07;;;;;;;33.30;7.72;;;13.60;62.30;;;;;;1039056;28;20018;-78
2021/03/04 02:09:42;;;;;;;38.45;8.93;;;13.60;63.00;;;;;;1012467;29;20526;-78
2021/03/04 02:10:23;;;;;;;30.42;8.48;;;13.50;63.80;;;;;;1015769;29;20033;-77
2021/03/04 02:11:27;;;;;;;36.30;8.15;;;13.60;63.60;;;;;;1015312;29;20032;-79
2021/03/04 02:12:15;;;;;;;38.35;8.73;;;13.50;63.90;;;;;;1015882;29;20132;-79
2021/03/04 02:13:21;;;;;;;32.13;7.95;;;13.30;64.60;;;;;;1040080;28;20100;-79
2021/03/04 02:14:10;;;;;;;37.53;8.18;;;13.20;65.40;;;;;;1040281;28;20373;-77
2021/03/04 02:14:53;;;;;;;31.15;7.88;;;13.20;65.80;;;;;;1034347;28;20113;-80
2021/03/04 02:15:30;;;;;;;33.92;8.68;;;13.30;65.80;;;;;;1034990;28;20022;-78
2021/03/04 02:16:05;;;;;;;40.95;8.57;;;13.30;65.50;;;;;;1037227;28;20602;-79
2021/03/04 02:16:50;;;;;;;37.80;8.45;;;13.20;66.00;;;;;;1041637;28;20018;-79
2021/03/04 02:17:49;;;;;;;32.75;8.13;;;13.10;66.20;;;;;;1037994;28;20135;-78
2021/03/04 02:18:25;;;;;;;35.08;8.18;;;13.10;66.70;;;;;;1035169;28;20053;-78
2021/03/04 02:19:02;;;;;;;40.05;8.60;;;13.10;66.70;;;;;;1037851;28;20190;-79
2021/03/04 02:20:07;;;;;;;30.77;7.60;;;13.00;66.90;;;;;;1037803;28;20117;-79
2021/03/04 02:21:15;;;;;;;36.75;7.97;;;12.90;67.20;;;;;;1036721;28;20053;-78
2021/03/04 02:22:14;;;;;;;39.60;8.75;;;13.00;67.70;;;;;;1043485;28;20036;-80
2021/03/04 02:23:23;;;;;;;37.10;8.25;;;13.00;67.60;;;;;;1040220;28;21008;-79
2021/03/04 02:24:22;;;;;;;28.67;8.25;;;12.90;67.90;;;;;;1033084;28;20019;-77
2021/03/04 02:25:14;;;;;;;35.33;8.23;;;12.90;68.20;;;;;;1041243;28;20025;-77
2021/03/04 02:26:05;;;;;;;38.70;8.77;;;12.90;68.40;;;;;;1043231;28;20033;-78
2021/03/04 02:27:02;;;;;;;35.72;8.63;;;12.80;68.70;;;;;;1043580;28;20017;-77
2021/03/04 02:27:36;;;;;;;33.67;8.15;;;12.70;68.90;;;;;;1038253;28;20030;-78
2021/03/04 02:28:11;;;;;;;27.08;7.85;;;12.70;69.10;;;;;;1037550;28;20383;-80
2021/03/04 02:28:46;;;;;;;33.38;8.60;;;12.70;69.30;;;;;;1034921;28;20014;-80
2021/03/04 02:29:22;;;;;;;29.88;7.97;;;12.70;69.40;;;;;;1036730;28;20036;-79
2021/03/04 02:30:13;;;;;;;33.70;8.85;;;12.70;69.60;;;;;;1039304;28;20010;-83
2021/03/04 02:30:46;;;;;;;33.08;7.95;;;12.70;69.10;;;;;;1048763;28;20013;-82
2021/03/04 02:31:41;;;;;;;34.38;8.00;;;12.70;69.10;;;;;;1046248;28;20100;-80
2021/03/04 02:32:36;;;;;;;;;;;;;;;;;;;;;
2021/03/04 02:33:45;;;;;;;30.50;7.90;;;12.60;69.30;;;;;;1037571;28;20025;-83
2021/03/04 02:34:18;;;;;;;33.58;8.25;;;12.60;69.20;;;;;;1041584;28;20104;-82
2021/03/04 02:36:24;;;;;;;36.60;8.55;;;12.60;69.60;;;;;;1023737;28;20122;-78
2021/03/04 02:39:17;;;;;;;;;;;;;;;;;;;;;
2021/03/04 02:42:56;;;;;;;33.00;8.10;;;12.50;69.60;;;;;;1007022;29;20052;-89
2021/03/04 02:45:27;;;;;;;34.08;8.25;;;12.50;69.80;;;;;;999423;29;20046;-90
2021/03/04 02:49:05;;;;;;;33.28;7.72;;;12.50;69.90;;;;;;1009838;29;20044;-89
2021/03/04 02:53:12;;;;;;;36.75;10.13;;;12.40;70.40;;;;;;999476;29;20066;-89
2021/03/04 03:03:17;;;;;;;37.60;8.65;;;12.40;69.10;;;;;;997598;29;20449;-80
2021/03/04 03:04:09;;;;;;;32.13;9.40;;;12.40;69.20;;;;;;1008656;29;20025;-86
2021/03/04 03:05:00;;;;;;;67.43;25.80;;;12.30;69.20;;;;;;1005706;29;20045;-83
2021/03/04 03:05:51;;;;;;;41.78;10.88;;;12.30;69.10;;;;;;1000933;29;20099;-86
2021/03/04 03:08:11;;;;;;;44.72;12.27;;;12.40;69.00;;;;;;1014095;29;20045;-84
2021/03/04 03:14:33;;;;;;;36.75;8.15;;;12.20;69.40;;;;;;1046958;23;20087;-77
2021/03/04 03:15:10;;;;;;;33.28;7.63;;;12.20;69.50;;;;;;1045635;28;20032;-77
2021/03/04 03:15:42;;;;;;;29.83;7.80;;;12.20;69.50;;;;;;1041191;28;20018;-78
2021/03/04 03:16:13;;;;;;;31.67;7.60;;;12.20;69.40;;;;;;1041247;28;20029;-77
2021/03/04 03:16:46;;;;;;;30.40;7.55;;;12.20;69.40;;;;;;1039208;28;20037;-77
2021/03/04 03:17:17;;;;;;;35.10;8.23;;;12.20;69.40;;;;;;1045507;28;20393;-77
2021/03/04 03:17:49;;;;;;;30.88;7.75;;;12.30;69.30;;;;;;1049461;28;20452;-78
2021/03/04 03:18:21;;;;;;;33.63;8.00;;;12.40;69.10;;;;;;1043366;28;20059;-77
2021/03/04 03:18:52;;;;;;;35.67;7.43;;;12.40;68.90;;;;;;1037526;28;20104;-77
2021/03/04 03:19:24;;;;;;;30.05;7.30;;;12.40;68.70;;;;;;1033074;28;20025;-77
2021/03/04 03:19:56;;;;;;;36.03;7.97;;;12.40;68.70;;;;;;1034143;28;20057;-76
2021/03/04 03:20:27;;;;;;;32.13;8.13;;;12.30;68.70;;;;;;1045254;28;20103;-76
2021/03/04 03:20:59;;;;;;;30.70;7.47;;;12.40;68.50;;;;;;1046805;28;20013;-76
2021/03/04 03:21:30;;;;;;;30.50;7.35;;;12.40;68.30;;;;;;1045141;28;20027;-77
2021/03/04 03:22:02;;;;;;;28.48;7.63;;;12.40;68.40;;;;;;1045318;28;20013;-76
2021/03/04 03:22:34;;;;;;;32.28;7.60;;;12.30;68.50;;;;;;1044829;28;20447;-77
2021/03/04 03:23:06;;;;;;;31.92;8.02;;;12.30;68.60;;;;;;1041448;28;20043;-77
2021/03/04 03:23:37;;;;;;;27.65;7.18;;;12.30;68.60;;;;;;1041241;28;20029;-76
2021/03/04 03:24:09;;;;;;;30.70;7.80;;;12.40;69.20;;;;;;1037531;28;20416;-77
2021/03/04 03:24:40;;;;;;;31.88;7.63;;;12.30;68.50;;;;;;1041757;28;20014;-76
2021/03/04 03:25:13;;;;;;;36.33;7.97;;;12.30;68.60;;;;;;1042902;28;20041;-76
2021/03/04 03:25:45;;;;;;;34.97;6.88;;;12.30;68.70;;;;;;1045930;28;20082;-76
2021/03/04 03:26:16;;;;;;;32.17;7.50;;;12.30;68.60;;;;;;1041086;28;20055;-76
2021/03/04 03:26:47;;;;;;;35.15;7.88;;;12.30;68.60;;;;;;1037606;28;20511;-76
2021/03/04 03:27:19;;;;;;;35.67;8.00;;;12.30;68.50;;;;;;1043615;28;20017;-77
2021/03/04 03:27:51;;;;;;;39.80;8.07;;;12.30;68.20;;;;;;1042651;28;20104;-75
2021/03/04 03:28:22;;;;;;;40.45;8.07;;;12.40;67.90;;;;;;1037785;28;20033;-77
2021/03/04 03:28:53;;;;;;;30.30;8.07;;;12.40;67.70;;;;;;1041799;28;20113;-76